sensor_id;sensor_type;location;lat;lon;timestamp;P1;durP1;ratioP1;P2;durP2;ratioP2
51654;SDS011;37732;53.106;7.030;2023-05-10T00:02:01;16.85;;;14.80;;
51654;SDS011;37732;53.106;7.030;2023-05-10T00:04:37;21.42;;;17.27;;
51654;SDS011;37732;53.106;7.030;2023-05-10T00:09:39;17.33;;;15.13;;
51654;SDS011;37732;53.106;7.030;2023-05-10T00:14:34;19.48;;;16.30;;
51654;SDS011;37732;53.106;7.030;2023-05-10T00:17:00;18.77;;;16.42;;
51654;SDS011;37732;53.106;7.030;2023-05-10T00:19:25;20.33;;;16.00;;
51654;SDS011;37732;53.106;7.030;2023-05-10T00:21:51;20.83;;;18.15;;
51654;SDS011;37732;53.106;7.030;2023-05-10T00:24:17;22.05;;;18.38;;
51654;SDS011;37732;53.106;7.030;2023-05-10T00:26:43;18.33;;;15.95;;
51654;SDS011;37732;53.106;7.030;2023-05-10T00:29:08;22.17;;;17.38;;
51654;SDS011;37732;53.106;7.030;2023-05-10T00:31:34;16.15;;;14.10;;
51654;SDS011;37732;53.106;7.030;2023-05-10T00:34:00;15.80;;;13.68;;
51654;SDS011;37732;53.106;7.030;2023-05-10T00:36:26;12.20;;;10.43;;
51654;SDS011;37732;53.106;7.030;2023-05-10T00:38:53;11.68;;;10.00;;
51654;SDS011;37732;53.106;7.030;2023-05-10T00:41:18;10.30;;;8.55;;
51654;SDS011;37732;53.106;7.030;2023-05-10T00:43:46;10.38;;;8.57;;
51654;SDS011;37732;53.106;7.030;2023-05-10T00:46:13;9.90;;;8.88;;
51654;SDS011;37732;53.106;7.030;2023-05-10T00:48:40;8.10;;;6.97;;
51654;SDS011;37732;53.106;7.030;2023-05-10T00:51:06;9.88;;;8.48;;
51654;SDS011;37732;53.106;7.030;2023-05-10T00:53:33;9.25;;;8.25;;
51654;SDS011;37732;53.106;7.030;2023-05-10T00:56:00;9.43;;;7.75;;
51654;SDS011;37732;53.106;7.030;2023-05-10T00:58:26;7.78;;;6.55;;
51654;SDS011;37732;53.106;7.030;2023-05-10T01:03:22;13.20;;;9.10;;
51654;SDS011;37732;53.106;7.030;2023-05-10T01:05:48;10.13;;;9.07;;
51654;SDS011;37732;53.106;7.030;2023-05-10T01:08:13;11.07;;;9.02;;
51654;SDS011;37732;53.106;7.030;2023-05-10T01:10:39;12.38;;;10.90;;
51654;SDS011;37732;53.106;7.030;2023-05-10T01:13:06;11.32;;;9.55;;
51654;SDS011;37732;53.106;7.030;2023-05-10T01:15:32;11.63;;;10.43;;
51654;SDS011;37732;53.106;7.030;2023-05-10T01:17:59;10.00;;;8.73;;
51654;SDS011;37732;53.106;7.030;2023-05-10T01:20:26;11.23;;;10.07;;
51654;SDS011;37732;53.106;7.030;2023-05-10T01:26:19;10.82;;;9.57;;
51654;SDS011;37732;53.106;7.030;2023-05-10T01:35:09;11.48;;;9.10;;
51654;SDS011;37732;53.106;7.030;2023-05-10T01:40:38;11.50;;;10.15;;
51654;SDS011;37732;53.106;7.030;2023-05-10T01:43:16;12.90;;;11.15;;
51654;SDS011;37732;53.106;7.030;2023-05-10T01:48:23;10.57;;;9.32;;
51654;SDS011;37732;53.106;7.030;2023-05-10T01:50:58;12.38;;;11.05;;
51654;SDS011;37732;53.106;7.030;2023-05-10T01:53:24;15.82;;;13.00;;
51654;SDS011;37732;53.106;7.030;2023-05-10T01:55:51;14.57;;;12.88;;
51654;SDS011;37732;53.106;7.030;2023-05-10T01:58:21;16.30;;;11.43;;
51654;SDS011;37732;53.106;7.030;2023-05-10T02:00:50;12.65;;;11.30;;
51654;SDS011;37732;53.106;7.030;2023-05-10T02:03:18;13.85;;;10.77;;
51654;SDS011;37732;53.106;7.030;2023-05-10T02:05:49;14.25;;;11.70;;
51654;SDS011;37732;53.106;7.030;2023-05-10T02:08:18;13.65;;;10.98;;
51654;SDS011;37732;53.106;7.030;2023-05-10T02:10:46;17.95;;;10.85;;
51654;SDS011;37732;53.106;7.030;2023-05-10T02:13:16;13.05;;;11.55;;
51654;SDS011;37732;53.106;7.030;2023-05-10T02:15:43;12.85;;;11.38;;
51654;SDS011;37732;53.106;7.030;2023-05-10T02:18:15;16.27;;;13.75;;
51654;SDS011;37732;53.106;7.030;2023-05-10T02:20:42;13.57;;;11.60;;
51654;SDS011;37732;53.106;7.030;2023-05-10T02:23:10;16.23;;;12.60;;
51654;SDS011;37732;53.106;7.030;2023-05-10T02:25:36;12.80;;;11.00;;
51654;SDS011;37732;53.106;7.030;2023-05-10T02:28:04;13.95;;;12.38;;
51654;SDS011;37732;53.106;7.030;2023-05-10T02:30:32;15.00;;;13.40;;
51654;SDS011;37732;53.106;7.030;2023-05-10T02:32:59;16.45;;;13.80;;
51654;SDS011;37732;53.106;7.030;2023-05-10T02:35:27;21.10;;;15.02;;
51654;SDS011;37732;53.106;7.030;2023-05-10T02:37:53;19.30;;;15.70;;
51654;SDS011;37732;53.106;7.030;2023-05-10T02:40:20;13.40;;;11.73;;
51654;SDS011;37732;53.106;7.030;2023-05-10T02:42:47;16.50;;;13.02;;
51654;SDS011;37732;53.106;7.030;2023-05-10T02:45:18;18.90;;;14.55;;
51654;SDS011;37732;53.106;7.030;2023-05-10T02:47:47;14.70;;;13.00;;
51654;SDS011;37732;53.106;7.030;2023-05-10T02:50:13;16.50;;;13.43;;
51654;SDS011;37732;53.106;7.030;2023-05-10T02:52:40;12.93;;;11.48;;
51654;SDS011;37732;53.106;7.030;2023-05-10T02:55:11;16.27;;;13.45;;
51654;SDS011;37732;53.106;7.030;2023-05-10T02:57:43;13.00;;;11.35;;
51654;SDS011;37732;53.106;7.030;2023-05-10T03:00:21;16.17;;;13.15;;
51654;SDS011;37732;53.106;7.030;2023-05-10T03:02:47;12.95;;;10.73;;
51654;SDS011;37732;53.106;7.030;2023-05-10T03:05:13;11.57;;;10.30;;
51654;SDS011;37732;53.106;7.030;2023-05-10T03:07:39;11.25;;;9.40;;
51654;SDS011;37732;53.106;7.030;2023-05-10T03:10:05;11.18;;;9.25;;
51654;SDS011;37732;53.106;7.030;2023-05-10T03:18:04;10.80;;;9.70;;
51654;SDS011;37732;53.106;7.030;2023-05-10T03:20:46;15.20;;;12.05;;
51654;SDS011;37732;53.106;7.030;2023-05-10T03:23:20;11.32;;;9.60;;
51654;SDS011;37732;53.106;7.030;2023-05-10T03:25:48;13.32;;;11.45;;
51654;SDS011;37732;53.106;7.030;2023-05-10T03:28:16;14.30;;;11.77;;
51654;SDS011;37732;53.106;7.030;2023-05-10T03:30:43;13.05;;;10.98;;
51654;SDS011;37732;53.106;7.030;2023-05-10T03:33:11;15.07;;;11.88;;
51654;SDS011;37732;53.106;7.030;2023-05-10T03:35:38;13.02;;;10.85;;
51654;SDS011;37732;53.106;7.030;2023-05-10T03:38:04;13.00;;;11.60;;
51654;SDS011;37732;53.106;7.030;2023-05-10T03:40:30;15.90;;;11.15;;
51654;SDS011;37732;53.106;7.030;2023-05-10T03:42:58;13.57;;;11.93;;
51654;SDS011;37732;53.106;7.030;2023-05-10T03:45:24;13.57;;;12.18;;
51654;SDS011;37732;53.106;7.030;2023-05-10T03:47:50;17.63;;;13.75;;
51654;SDS011;37732;53.106;7.030;2023-05-10T03:50:17;15.93;;;13.73;;
51654;SDS011;37732;53.106;7.030;2023-05-10T03:52:44;18.08;;;15.30;;
51654;SDS011;37732;53.106;7.030;2023-05-10T03:55:10;17.17;;;14.30;;
51654;SDS011;37732;53.106;7.030;2023-05-10T03:57:37;15.05;;;12.50;;
51654;SDS011;37732;53.106;7.030;2023-05-10T04:00:03;17.75;;;14.18;;
51654;SDS011;37732;53.106;7.030;2023-05-10T04:02:29;15.63;;;13.32;;
51654;SDS011;37732;53.106;7.030;2023-05-10T04:04:56;18.75;;;14.40;;
51654;SDS011;37732;53.106;7.030;2023-05-10T04:07:21;17.60;;;14.77;;
51654;SDS011;37732;53.106;7.030;2023-05-10T04:09:47;21.02;;;16.25;;
51654;SDS011;37732;53.106;7.030;2023-05-10T04:12:13;17.15;;;13.95;;
51654;SDS011;37732;53.106;7.030;2023-05-10T04:14:39;14.05;;;12.25;;
51654;SDS011;37732;53.106;7.030;2023-05-10T04:17:06;18.30;;;14.85;;
51654;SDS011;37732;53.106;7.030;2023-05-10T04:19:32;16.63;;;14.43;;
51654;SDS011;37732;53.106;7.030;2023-05-10T04:21:58;18.85;;;15.20;;
51654;SDS011;37732;53.106;7.030;2023-05-10T04:24:24;20.95;;;16.17;;
51654;SDS011;37732;53.106;7.030;2023-05-10T04:26:51;24.45;;;18.35;;
51654;SDS011;37732;53.106;7.030;2023-05-10T04:29:16;19.63;;;14.82;;
51654;SDS011;37732;53.106;7.030;2023-05-10T04:31:42;23.85;;;16.10;;
51654;SDS011;37732;53.106;7.030;2023-05-10T04:34:08;19.45;;;16.63;;
51654;SDS011;37732;53.106;7.030;2023-05-10T04:36:33;25.75;;;19.27;;
51654;SDS011;37732;53.106;7.030;2023-05-10T04:39:00;18.63;;;15.90;;
51654;SDS011;37732;53.106;7.030;2023-05-10T04:41:28;20.73;;;16.02;;
51654;SDS011;37732;53.106;7.030;2023-05-10T04:43:54;18.48;;;15.98;;
51654;SDS011;37732;53.106;7.030;2023-05-10T04:46:20;18.83;;;16.50;;
51654;SDS011;37732;53.106;7.030;2023-05-10T04:48:46;19.55;;;15.38;;
51654;SDS011;37732;53.106;7.030;2023-05-10T04:51:12;20.15;;;15.55;;
51654;SDS011;37732;53.106;7.030;2023-05-10T04:53:38;19.88;;;15.68;;
51654;SDS011;37732;53.106;7.030;2023-05-10T04:56:04;20.25;;;16.25;;
51654;SDS011;37732;53.106;7.030;2023-05-10T04:58:30;21.63;;;15.68;;
51654;SDS011;37732;53.106;7.030;2023-05-10T05:00:56;17.80;;;15.05;;
51654;SDS011;37732;53.106;7.030;2023-05-10T05:03:21;17.02;;;14.68;;
51654;SDS011;37732;53.106;7.030;2023-05-10T05:05:47;16.83;;;13.82;;
51654;SDS011;37732;53.106;7.030;2023-05-10T05:08:13;16.02;;;13.88;;
51654;SDS011;37732;53.106;7.030;2023-05-10T05:10:40;15.75;;;12.75;;
51654;SDS011;37732;53.106;7.030;2023-05-10T05:13:05;15.57;;;12.93;;
51654;SDS011;37732;53.106;7.030;2023-05-10T05:15:31;13.88;;;11.77;;
51654;SDS011;37732;53.106;7.030;2023-05-10T05:17:57;13.50;;;11.02;;
51654;SDS011;37732;53.106;7.030;2023-05-10T05:20:23;16.02;;;13.15;;
51654;SDS011;37732;53.106;7.030;2023-05-10T05:22:48;15.20;;;12.40;;
51654;SDS011;37732;53.106;7.030;2023-05-10T05:25:15;13.45;;;10.90;;
51654;SDS011;37732;53.106;7.030;2023-05-10T05:27:41;13.90;;;12.45;;
51654;SDS011;37732;53.106;7.030;2023-05-10T05:30:07;13.73;;;10.68;;
51654;SDS011;37732;53.106;7.030;2023-05-10T05:32:33;13.23;;;11.50;;
51654;SDS011;37732;53.106;7.030;2023-05-10T05:34:59;13.55;;;10.43;;
51654;SDS011;37732;53.106;7.030;2023-05-10T05:37:25;12.38;;;9.88;;
51654;SDS011;37732;53.106;7.030;2023-05-10T05:39:51;12.23;;;10.57;;
51654;SDS011;37732;53.106;7.030;2023-05-10T05:42:17;13.10;;;9.50;;
51654;SDS011;37732;53.106;7.030;2023-05-10T05:44:44;10.43;;;9.30;;
51654;SDS011;37732;53.106;7.030;2023-05-10T05:47:10;10.52;;;9.20;;
51654;SDS011;37732;53.106;7.030;2023-05-10T05:49:36;10.35;;;9.05;;
51654;SDS011;37732;53.106;7.030;2023-05-10T05:52:02;13.02;;;10.82;;
51654;SDS011;37732;53.106;7.030;2023-05-10T05:54:29;12.07;;;10.25;;
51654;SDS011;37732;53.106;7.030;2023-05-10T05:56:56;10.13;;;8.63;;
51654;SDS011;37732;53.106;7.030;2023-05-10T05:59:22;12.35;;;9.57;;
51654;SDS011;37732;53.106;7.030;2023-05-10T06:01:48;10.27;;;9.20;;
51654;SDS011;37732;53.106;7.030;2023-05-10T06:04:15;13.90;;;10.90;;
51654;SDS011;37732;53.106;7.030;2023-05-10T06:06:41;10.82;;;9.57;;
51654;SDS011;37732;53.106;7.030;2023-05-10T06:09:08;12.00;;;9.82;;
51654;SDS011;37732;53.106;7.030;2023-05-10T06:11:34;10.13;;;8.57;;
51654;SDS011;37732;53.106;7.030;2023-05-10T06:14:01;10.90;;;8.45;;
51654;SDS011;37732;53.106;7.030;2023-05-10T06:16:28;9.40;;;7.82;;
51654;SDS011;37732;53.106;7.030;2023-05-10T06:18:54;8.10;;;6.97;;
51654;SDS011;37732;53.106;7.030;2023-05-10T06:21:20;7.22;;;5.88;;
51654;SDS011;37732;53.106;7.030;2023-05-10T06:23:46;9.38;;;6.72;;
51654;SDS011;37732;53.106;7.030;2023-05-10T06:26:12;8.27;;;6.28;;
51654;SDS011;37732;53.106;7.030;2023-05-10T06:28:38;7.30;;;5.78;;
51654;SDS011;37732;53.106;7.030;2023-05-10T06:31:04;8.20;;;5.82;;
51654;SDS011;37732;53.106;7.030;2023-05-10T06:33:31;6.93;;;5.43;;
51654;SDS011;37732;53.106;7.030;2023-05-10T06:35:57;6.55;;;4.95;;
51654;SDS011;37732;53.106;7.030;2023-05-10T06:38:22;6.07;;;4.53;;
51654;SDS011;37732;53.106;7.030;2023-05-10T06:40:49;5.97;;;4.65;;
51654;SDS011;37732;53.106;7.030;2023-05-10T06:43:15;7.68;;;4.75;;
51654;SDS011;37732;53.106;7.030;2023-05-10T06:45:41;6.30;;;4.40;;
51654;SDS011;37732;53.106;7.030;2023-05-10T06:48:08;5.15;;;3.45;;
51654;SDS011;37732;53.106;7.030;2023-05-10T06:50:33;5.40;;;3.30;;
51654;SDS011;37732;53.106;7.030;2023-05-10T06:52:59;4.65;;;3.30;;
51654;SDS011;37732;53.106;7.030;2023-05-10T06:55:26;4.93;;;3.50;;
51654;SDS011;37732;53.106;7.030;2023-05-10T06:57:54;4.10;;;2.63;;
51654;SDS011;37732;53.106;7.030;2023-05-10T07:00:20;2.97;;;2.13;;
51654;SDS011;37732;53.106;7.030;2023-05-10T07:02:46;2.88;;;2.20;;
51654;SDS011;37732;53.106;7.030;2023-05-10T07:05:12;3.95;;;2.10;;
51654;SDS011;37732;53.106;7.030;2023-05-10T07:07:39;2.47;;;1.75;;
51654;SDS011;37732;53.106;7.030;2023-05-10T07:10:05;3.58;;;1.80;;
51654;SDS011;37732;53.106;7.030;2023-05-10T07:12:32;3.42;;;2.17;;
51654;SDS011;37732;53.106;7.030;2023-05-10T07:14:58;3.00;;;2.10;;
51654;SDS011;37732;53.106;7.030;2023-05-10T07:17:24;2.72;;;1.73;;
51654;SDS011;37732;53.106;7.030;2023-05-10T07:19:51;3.22;;;1.88;;
51654;SDS011;37732;53.106;7.030;2023-05-10T07:22:16;3.83;;;2.33;;
51654;SDS011;37732;53.106;7.030;2023-05-10T07:24:42;2.95;;;2.05;;
51654;SDS011;37732;53.106;7.030;2023-05-10T07:27:08;4.82;;;2.70;;
51654;SDS011;37732;53.106;7.030;2023-05-10T07:29:34;4.20;;;2.33;;
51654;SDS011;37732;53.106;7.030;2023-05-10T07:32:00;6.40;;;3.00;;
51654;SDS011;37732;53.106;7.030;2023-05-10T07:34:26;4.28;;;2.67;;
51654;SDS011;37732;53.106;7.030;2023-05-10T07:36:55;4.28;;;2.72;;
51654;SDS011;37732;53.106;7.030;2023-05-10T07:39:21;4.97;;;3.05;;
51654;SDS011;37732;53.106;7.030;2023-05-10T07:41:47;4.57;;;2.83;;
51654;SDS011;37732;53.106;7.030;2023-05-10T07:44:13;5.65;;;3.60;;
51654;SDS011;37732;53.106;7.030;2023-05-10T07:46:39;5.70;;;3.78;;
51654;SDS011;37732;53.106;7.030;2023-05-10T07:49:05;5.20;;;3.40;;
51654;SDS011;37732;53.106;7.030;2023-05-10T07:51:31;5.68;;;3.33;;
51654;SDS011;37732;53.106;7.030;2023-05-10T07:53:57;6.25;;;4.38;;
51654;SDS011;37732;53.106;7.030;2023-05-10T07:56:27;5.93;;;4.30;;
51654;SDS011;37732;53.106;7.030;2023-05-10T07:58:57;9.10;;;5.72;;
51654;SDS011;37732;53.106;7.030;2023-05-10T08:01:24;5.53;;;3.90;;
51654;SDS011;37732;53.106;7.030;2023-05-10T08:03:50;5.97;;;3.72;;
51654;SDS011;37732;53.106;7.030;2023-05-10T08:06:19;7.20;;;4.70;;
51654;SDS011;37732;53.106;7.030;2023-05-10T08:08:46;6.03;;;3.78;;
51654;SDS011;37732;53.106;7.030;2023-05-10T08:11:17;4.93;;;3.38;;
51654;SDS011;37732;53.106;7.030;2023-05-10T08:13:47;5.75;;;3.72;;
51654;SDS011;37732;53.106;7.030;2023-05-10T08:16:14;5.90;;;4.03;;
51654;SDS011;37732;53.106;7.030;2023-05-10T08:18:40;5.57;;;3.38;;
51654;SDS011;37732;53.106;7.030;2023-05-10T08:21:07;6.65;;;3.28;;
51654;SDS011;37732;53.106;7.030;2023-05-10T08:23:33;7.68;;;3.50;;
51654;SDS011;37732;53.106;7.030;2023-05-10T08:25:59;5.10;;;2.97;;
51654;SDS011;37732;53.106;7.030;2023-05-10T08:28:25;6.45;;;3.47;;
51654;SDS011;37732;53.106;7.030;2023-05-10T08:30:52;5.38;;;3.00;;
51654;SDS011;37732;53.106;7.030;2023-05-10T08:33:18;4.47;;;2.78;;
51654;SDS011;37732;53.106;7.030;2023-05-10T08:35:44;5.18;;;3.88;;
51654;SDS011;37732;53.106;7.030;2023-05-10T08:38:10;4.30;;;3.45;;
51654;SDS011;37732;53.106;7.030;2023-05-10T08:40:42;6.38;;;4.13;;
51654;SDS011;37732;53.106;7.030;2023-05-10T08:43:09;4.22;;;3.30;;
51654;SDS011;37732;53.106;7.030;2023-05-10T08:45:37;5.28;;;3.80;;
51654;SDS011;37732;53.106;7.030;2023-05-10T08:48:07;5.63;;;3.92;;
51654;SDS011;37732;53.106;7.030;2023-05-10T08:50:38;5.05;;;3.42;;
51654;SDS011;37732;53.106;7.030;2023-05-10T08:53:06;3.90;;;2.92;;
51654;SDS011;37732;53.106;7.030;2023-05-10T08:55:36;5.68;;;3.22;;
51654;SDS011;37732;53.106;7.030;2023-05-10T08:58:04;5.80;;;4.07;;
51654;SDS011;37732;53.106;7.030;2023-05-10T09:00:30;6.05;;;4.00;;
51654;SDS011;37732;53.106;7.030;2023-05-10T09:02:56;5.57;;;3.80;;
51654;SDS011;37732;53.106;7.030;2023-05-10T09:05:26;6.30;;;4.05;;
51654;SDS011;37732;53.106;7.030;2023-05-10T09:07:53;5.50;;;4.40;;
51654;SDS011;37732;53.106;7.030;2023-05-10T09:10:20;6.22;;;4.50;;
51654;SDS011;37732;53.106;7.030;2023-05-10T09:12:48;5.80;;;4.45;;
51654;SDS011;37732;53.106;7.030;2023-05-10T09:15:14;7.30;;;4.85;;
51654;SDS011;37732;53.106;7.030;2023-05-10T09:17:41;4.88;;;3.78;;
51654;SDS011;37732;53.106;7.030;2023-05-10T09:20:09;5.45;;;4.00;;
51654;SDS011;37732;53.106;7.030;2023-05-10T09:22:35;4.80;;;3.78;;
51654;SDS011;37732;53.106;7.030;2023-05-10T09:25:08;5.63;;;4.00;;
51654;SDS011;37732;53.106;7.030;2023-05-10T09:27:36;8.63;;;4.60;;
51654;SDS011;37732;53.106;7.030;2023-05-10T09:30:03;5.30;;;4.28;;
51654;SDS011;37732;53.106;7.030;2023-05-10T09:32:40;5.90;;;4.70;;
51654;SDS011;37732;53.106;7.030;2023-05-10T09:35:10;5.90;;;4.85;;
51654;SDS011;37732;53.106;7.030;2023-05-10T09:37:39;7.15;;;5.88;;
51654;SDS011;37732;53.106;7.030;2023-05-10T09:40:16;7.95;;;5.18;;
51654;SDS011;37732;53.106;7.030;2023-05-10T09:45:22;6.40;;;5.70;;
51654;SDS011;37732;53.106;7.030;2023-05-10T09:47:48;7.22;;;6.28;;
51654;SDS011;37732;53.106;7.030;2023-05-10T09:50:14;6.63;;;5.30;;
51654;SDS011;37732;53.106;7.030;2023-05-10T09:52:50;7.25;;;6.05;;
51654;SDS011;37732;53.106;7.030;2023-05-10T09:55:20;8.05;;;5.53;;
51654;SDS011;37732;53.106;7.030;2023-05-10T09:57:48;6.63;;;5.70;;
51654;SDS011;37732;53.106;7.030;2023-05-10T10:00:23;7.57;;;6.40;;
51654;SDS011;37732;53.106;7.030;2023-05-10T10:02:58;7.88;;;6.90;;
51654;SDS011;37732;53.106;7.030;2023-05-10T10:05:43;8.73;;;6.97;;
51654;SDS011;37732;53.106;7.030;2023-05-10T10:08:10;9.02;;;7.50;;
51654;SDS011;37732;53.106;7.030;2023-05-10T10:10:37;7.55;;;6.28;;
51654;SDS011;37732;53.106;7.030;2023-05-10T10:13:06;7.57;;;6.32;;
51654;SDS011;37732;53.106;7.030;2023-05-10T10:15:33;7.50;;;6.55;;
51654;SDS011;37732;53.106;7.030;2023-05-10T10:17:59;8.05;;;7.07;;
51654;SDS011;37732;53.106;7.030;2023-05-10T10:20:26;5.53;;;4.43;;
51654;SDS011;37732;53.106;7.030;2023-05-10T10:22:54;4.97;;;3.85;;
51654;SDS011;37732;53.106;7.030;2023-05-10T10:25:20;6.03;;;4.65;;
51654;SDS011;37732;53.106;7.030;2023-05-10T10:35:58;6.13;;;4.68;;
51654;SDS011;37732;53.106;7.030;2023-05-10T10:38:37;5.57;;;4.47;;
51654;SDS011;37732;53.106;7.030;2023-05-10T10:49:49;5.07;;;4.38;;
51654;SDS011;37732;53.106;7.030;2023-05-10T10:52:23;6.03;;;4.30;;
51654;SDS011;37732;53.106;7.030;2023-05-10T10:57:31;5.07;;;3.80;;
51654;SDS011;37732;53.106;7.030;2023-05-10T11:13:17;5.30;;;4.00;;
51654;SDS011;37732;53.106;7.030;2023-05-10T11:15:56;5.63;;;4.10;;
51654;SDS011;37732;53.106;7.030;2023-05-10T11:18:27;4.93;;;3.70;;
51654;SDS011;37732;53.106;7.030;2023-05-10T11:20:58;6.57;;;4.47;;
51654;SDS011;37732;53.106;7.030;2023-05-10T11:23:31;6.05;;;4.35;;
51654;SDS011;37732;53.106;7.030;2023-05-10T11:26:12;9.73;;;4.70;;
51654;SDS011;37732;53.106;7.030;2023-05-10T11:28:45;5.90;;;4.45;;
51654;SDS011;37732;53.106;7.030;2023-05-10T11:31:15;6.63;;;5.18;;
51654;SDS011;37732;53.106;7.030;2023-05-10T11:33:52;7.63;;;4.70;;
51654;SDS011;37732;53.106;7.030;2023-05-10T11:36:20;6.63;;;5.03;;
51654;SDS011;37732;53.106;7.030;2023-05-10T11:38:48;5.82;;;4.45;;
51654;SDS011;37732;53.106;7.030;2023-05-10T11:41:15;5.88;;;4.20;;
51654;SDS011;37732;53.106;7.030;2023-05-10T11:43:42;7.22;;;5.03;;
51654;SDS011;37732;53.106;7.030;2023-05-10T11:46:11;6.10;;;4.53;;
51654;SDS011;37732;53.106;7.030;2023-05-10T11:48:38;5.75;;;3.95;;
51654;SDS011;37732;53.106;7.030;2023-05-10T11:51:05;6.03;;;3.88;;
51654;SDS011;37732;53.106;7.030;2023-05-10T11:53:32;9.98;;;4.35;;
51654;SDS011;37732;53.106;7.030;2023-05-10T11:56:08;5.57;;;4.05;;
51654;SDS011;37732;53.106;7.030;2023-05-10T11:58:35;7.68;;;4.05;;
51654;SDS011;37732;53.106;7.030;2023-05-10T12:01:02;5.90;;;4.15;;
51654;SDS011;37732;53.106;7.030;2023-05-10T12:03:31;7.85;;;4.55;;
51654;SDS011;37732;53.106;7.030;2023-05-10T12:05:59;6.85;;;4.45;;
51654;SDS011;37732;53.106;7.030;2023-05-10T12:08:35;6.35;;;5.00;;
51654;SDS011;37732;53.106;7.030;2023-05-10T12:11:05;6.75;;;4.20;;
51654;SDS011;37732;53.106;7.030;2023-05-10T12:13:32;7.53;;;5.03;;
51654;SDS011;37732;53.106;7.030;2023-05-10T12:16:12;10.35;;;6.15;;
51654;SDS011;37732;53.106;7.030;2023-05-10T12:18:48;7.22;;;5.20;;
51654;SDS011;37732;53.106;7.030;2023-05-10T12:21:14;8.93;;;5.47;;
51654;SDS011;37732;53.106;7.030;2023-05-10T12:23:40;7.85;;;5.88;;
51654;SDS011;37732;53.106;7.030;2023-05-10T12:26:10;9.07;;;6.40;;
51654;SDS011;37732;53.106;7.030;2023-05-10T12:28:36;8.93;;;6.13;;
51654;SDS011;37732;53.106;7.030;2023-05-10T12:31:02;7.75;;;5.65;;
51654;SDS011;37732;53.106;7.030;2023-05-10T12:33:39;7.68;;;5.00;;
51654;SDS011;37732;53.106;7.030;2023-05-10T12:36:08;7.18;;;5.05;;
51654;SDS011;37732;53.106;7.030;2023-05-10T12:38:38;8.57;;;5.15;;
51654;SDS011;37732;53.106;7.030;2023-05-10T12:41:11;6.85;;;4.97;;
51654;SDS011;37732;53.106;7.030;2023-05-10T12:43:39;7.90;;;4.75;;
51654;SDS011;37732;53.106;7.030;2023-05-10T12:46:08;6.60;;;5.03;;
51654;SDS011;37732;53.106;7.030;2023-05-10T12:48:34;6.22;;;4.55;;
51654;SDS011;37732;53.106;7.030;2023-05-10T12:51:02;8.82;;;5.45;;
51654;SDS011;37732;53.106;7.030;2023-05-10T12:53:28;8.50;;;5.65;;
51654;SDS011;37732;53.106;7.030;2023-05-10T12:55:55;8.10;;;5.30;;
51654;SDS011;37732;53.106;7.030;2023-05-10T12:58:21;7.50;;;5.60;;
51654;SDS011;37732;53.106;7.030;2023-05-10T13:00:47;8.77;;;6.10;;
51654;SDS011;37732;53.106;7.030;2023-05-10T13:03:13;8.90;;;5.63;;
51654;SDS011;37732;53.106;7.030;2023-05-10T13:05:40;9.27;;;6.35;;
51654;SDS011;37732;53.106;7.030;2023-05-10T13:08:06;7.40;;;5.50;;
51654;SDS011;37732;53.106;7.030;2023-05-10T13:10:32;9.43;;;6.15;;
51654;SDS011;37732;53.106;7.030;2023-05-10T13:12:58;8.52;;;5.82;;
51654;SDS011;37732;53.106;7.030;2023-05-10T13:15:25;9.43;;;6.65;;
51654;SDS011;37732;53.106;7.030;2023-05-10T13:17:52;8.80;;;5.97;;
51654;SDS011;37732;53.106;7.030;2023-05-10T13:20:18;8.00;;;4.40;;
51654;SDS011;37732;53.106;7.030;2023-05-10T13:22:45;10.00;;;4.60;;
51654;SDS011;37732;53.106;7.030;2023-05-10T13:25:11;6.63;;;3.58;;
51654;SDS011;37732;53.106;7.030;2023-05-10T13:27:39;6.97;;;4.00;;
51654;SDS011;37732;53.106;7.030;2023-05-10T13:30:06;7.93;;;4.32;;
51654;SDS011;37732;53.106;7.030;2023-05-10T13:32:32;6.10;;;4.18;;
51654;SDS011;37732;53.106;7.030;2023-05-10T13:34:59;7.20;;;4.40;;
51654;SDS011;37732;53.106;7.030;2023-05-10T13:37:24;6.72;;;4.90;;
51654;SDS011;37732;53.106;7.030;2023-05-10T13:39:50;8.65;;;5.43;;
51654;SDS011;37732;53.106;7.030;2023-05-10T13:42:17;6.68;;;4.80;;
51654;SDS011;37732;53.106;7.030;2023-05-10T13:44:43;10.25;;;5.20;;
51654;SDS011;37732;53.106;7.030;2023-05-10T13:47:09;8.18;;;5.30;;
51654;SDS011;37732;53.106;7.030;2023-05-10T13:49:36;7.68;;;5.18;;
51654;SDS011;37732;53.106;7.030;2023-05-10T13:52:02;8.07;;;5.60;;
51654;SDS011;37732;53.106;7.030;2023-05-10T13:54:32;8.50;;;6.18;;
51654;SDS011;37732;53.106;7.030;2023-05-10T13:57:01;8.93;;;5.50;;
51654;SDS011;37732;53.106;7.030;2023-05-10T13:59:27;9.88;;;6.28;;
51654;SDS011;37732;53.106;7.030;2023-05-10T14:01:53;10.10;;;6.60;;
51654;SDS011;37732;53.106;7.030;2023-05-10T14:04:19;9.63;;;6.70;;
51654;SDS011;37732;53.106;7.030;2023-05-10T14:06:45;8.20;;;6.50;;
51654;SDS011;37732;53.106;7.030;2023-05-10T14:09:11;7.88;;;5.90;;
51654;SDS011;37732;53.106;7.030;2023-05-10T14:11:38;7.88;;;6.00;;
51654;SDS011;37732;53.106;7.030;2023-05-10T14:14:08;7.95;;;5.65;;
51654;SDS011;37732;53.106;7.030;2023-05-10T14:16:36;8.43;;;5.25;;
51654;SDS011;37732;53.106;7.030;2023-05-10T14:19:02;6.65;;;5.03;;
51654;SDS011;37732;53.106;7.030;2023-05-10T14:21:28;9.88;;;5.88;;
51654;SDS011;37732;53.106;7.030;2023-05-10T14:23:56;7.05;;;5.40;;
51654;SDS011;37732;53.106;7.030;2023-05-10T14:26:22;6.70;;;5.22;;
51654;SDS011;37732;53.106;7.030;2023-05-10T14:28:48;7.80;;;5.72;;
51654;SDS011;37732;53.106;7.030;2023-05-10T14:31:14;7.78;;;5.40;;
51654;SDS011;37732;53.106;7.030;2023-05-10T14:33:41;8.68;;;6.18;;
51654;SDS011;37732;53.106;7.030;2023-05-10T14:36:07;8.75;;;6.78;;
51654;SDS011;37732;53.106;7.030;2023-05-10T14:38:33;9.85;;;6.68;;
51654;SDS011;37732;53.106;7.030;2023-05-10T14:40:59;9.93;;;6.65;;
51654;SDS011;37732;53.106;7.030;2023-05-10T14:43:25;10.35;;;7.40;;
51654;SDS011;37732;53.106;7.030;2023-05-10T14:45:52;10.30;;;6.78;;
51654;SDS011;37732;53.106;7.030;2023-05-10T14:48:18;11.07;;;7.07;;
51654;SDS011;37732;53.106;7.030;2023-05-10T14:50:44;8.95;;;6.40;;
51654;SDS011;37732;53.106;7.030;2023-05-10T14:53:11;9.02;;;7.38;;
51654;SDS011;37732;53.106;7.030;2023-05-10T14:55:36;8.05;;;6.15;;
51654;SDS011;37732;53.106;7.030;2023-05-10T14:58:03;10.88;;;6.95;;
51654;SDS011;37732;53.106;7.030;2023-05-10T15:00:29;9.40;;;6.88;;
51654;SDS011;37732;53.106;7.030;2023-05-10T15:02:54;11.02;;;6.78;;
51654;SDS011;37732;53.106;7.030;2023-05-10T15:05:20;8.68;;;7.03;;
51654;SDS011;37732;53.106;7.030;2023-05-10T15:07:47;8.65;;;7.30;;
51654;SDS011;37732;53.106;7.030;2023-05-10T15:10:12;11.13;;;7.88;;
51654;SDS011;37732;53.106;7.030;2023-05-10T15:12:39;8.35;;;6.40;;
51654;SDS011;37732;53.106;7.030;2023-05-10T15:15:05;10.93;;;6.97;;
51654;SDS011;37732;53.106;7.030;2023-05-10T15:17:31;11.18;;;7.15;;
51654;SDS011;37732;53.106;7.030;2023-05-10T15:19:57;9.35;;;7.00;;
51654;SDS011;37732;53.106;7.030;2023-05-10T15:22:23;8.90;;;6.70;;
51654;SDS011;37732;53.106;7.030;2023-05-10T15:24:49;10.20;;;7.22;;
51654;SDS011;37732;53.106;7.030;2023-05-10T15:27:15;9.23;;;6.55;;
51654;SDS011;37732;53.106;7.030;2023-05-10T15:29:40;8.40;;;6.70;;
51654;SDS011;37732;53.106;7.030;2023-05-10T15:32:07;9.13;;;6.38;;
51654;SDS011;37732;53.106;7.030;2023-05-10T15:34:32;10.48;;;7.35;;
51654;SDS011;37732;53.106;7.030;2023-05-10T15:36:58;10.68;;;7.07;;
51654;SDS011;37732;53.106;7.030;2023-05-10T15:39:24;9.30;;;7.22;;
51654;SDS011;37732;53.106;7.030;2023-05-10T15:41:50;7.95;;;7.05;;
51654;SDS011;37732;53.106;7.030;2023-05-10T15:44:16;11.10;;;7.25;;